createdAt,value
2019-03-20T00:01:00.611Z,8.00
2019-03-20T00:06:00.525Z,8.00
2019-03-20T00:11:00.163Z,7.90
2019-03-20T00:15:59.787Z,7.90
2019-03-20T00:20:59.564Z,7.70
2019-03-20T00:25:59.263Z,7.70
2019-03-20T00:30:59.155Z,7.60
2019-03-20T00:35:58.847Z,7.60
2019-03-20T00:40:58.494Z,7.60
2019-03-20T00:45:58.155Z,7.60
2019-03-20T00:50:57.799Z,7.50
2019-03-20T00:56:09.903Z,7.50
2019-03-20T01:01:09.615Z,7.50
2019-03-20T01:06:09.492Z,7.50
2019-03-20T01:11:09.127Z,7.50
2019-03-20T01:16:08.830Z,7.40
2019-03-20T01:21:08.475Z,7.40
2019-03-20T01:26:08.123Z,7.40
2019-03-20T01:31:07.991Z,7.40
2019-03-20T01:36:07.634Z,7.30
2019-03-20T01:41:07.287Z,7.30
2019-03-20T01:46:06.975Z,7.30
2019-03-20T01:51:17.967Z,7.30
2019-03-20T01:56:17.692Z,7.30
2019-03-20T02:01:17.715Z,7.30
2019-03-20T02:06:17.374Z,7.30
2019-03-20T02:11:17.010Z,7.30
2019-03-20T02:16:16.655Z,7.30
2019-03-20T02:21:16.391Z,7.30
2019-03-20T02:26:16.274Z,7.30
2019-03-20T02:31:15.916Z,7.20
2019-03-20T02:36:15.664Z,7.20
2019-03-20T02:41:15.396Z,7.20
2019-03-20T02:46:34.292Z,7.10
2019-03-20T02:51:34.236Z,7.10
2019-03-20T02:56:33.886Z,7.00
2019-03-20T03:01:33.537Z,7.00
2019-03-20T03:06:33.246Z,7.00
2019-03-20T03:11:33.299Z,7.00
2019-03-20T03:16:32.935Z,7.00
2019-03-20T03:21:32.592Z,6.90
2019-03-20T03:26:32.271Z,6.90
2019-03-20T03:31:31.929Z,6.90
2019-03-20T03:36:31.816Z,6.90
2019-03-20T03:41:32.432Z,6.80
2019-03-20T03:46:32.332Z,6.70
2019-03-20T03:51:32.319Z,6.70
2019-03-20T03:56:32.028Z,6.70
2019-03-20T04:01:31.702Z,6.70
2019-03-20T04:06:35.957Z,6.70
2019-03-20T04:11:33.455Z,6.70
2019-03-20T04:16:33.112Z,6.70
2019-03-20T04:21:32.743Z,6.60
2019-03-20T04:26:32.407Z,6.60
2019-03-20T04:31:32.347Z,6.60
2019-03-20T04:36:32.339Z,6.60
2019-03-20T04:41:31.975Z,6.60
2019-03-20T04:46:31.622Z,6.60
2019-03-20T04:51:32.351Z,6.60
2019-03-20T04:56:31.979Z,6.60
2019-03-20T05:01:31.619Z,6.60
2019-03-20T05:06:31.271Z,6.60
2019-03-20T05:11:31.220Z,6.60
2019-03-20T05:16:31.116Z,6.60
2019-03-20T05:21:30.764Z,6.60
2019-03-20T05:26:30.768Z,6.70
2019-03-20T05:31:30.466Z,6.70
2019-03-20T05:36:30.359Z,6.80
2019-03-20T05:41:30.017Z,6.80
2019-03-20T05:46:29.747Z,6.80
2019-03-20T05:51:29.679Z,6.90
2019-03-20T05:56:29.347Z,6.90
2019-03-20T06:01:29.315Z,6.90
2019-03-20T06:06:29.007Z,6.90
2019-03-20T06:11:28.656Z,6.90
2019-03-20T06:16:28.299Z,6.90
2019-03-20T06:21:28.027Z,7.00
2019-03-20T06:26:27.711Z,7.00
2019-03-20T06:31:27.365Z,7.00
2019-03-20T06:36:28.314Z,7.10
2019-03-20T06:41:28.163Z,7.10
2019-03-20T06:46:27.824Z,7.20
2019-03-20T06:51:27.712Z,7.20
2019-03-20T06:56:27.367Z,7.30
2019-03-20T07:01:28.979Z,7.40
2019-03-20T07:06:51.322Z,7.40
2019-03-20T07:11:51.292Z,7.50
2019-03-20T07:16:51.230Z,7.60
2019-03-20T07:21:51.170Z,7.70
2019-03-20T07:26:51.080Z,7.80
2019-03-20T07:31:51.055Z,7.90
2019-03-20T07:36:50.706Z,8.10
2019-03-20T07:41:50.340Z,8.20
2019-03-20T07:46:50.006Z,8.30
2019-03-20T07:51:49.660Z,8.30
2019-03-20T07:56:49.291Z,8.40
2019-03-20T08:01:48.947Z,8.50
2019-03-20T08:06:48.588Z,8.70
2019-03-20T08:11:48.396Z,8.70
2019-03-20T08:16:48.147Z,8.80
2019-03-20T08:21:47.803Z,8.90
2019-03-20T08:26:47.447Z,9.00
2019-03-20T08:31:47.454Z,9.00
2019-03-20T08:36:47.111Z,9.10
2019-03-20T08:41:46.785Z,9.30
2019-03-20T08:46:46.761Z,9.40
2019-03-20T08:51:46.422Z,9.60
2019-03-20T08:56:47.111Z,9.70
2019-03-20T09:01:47.027Z,9.90
2019-03-20T09:06:46.667Z,10.10
2019-03-20T09:11:46.323Z,10.30
2019-03-20T09:16:46.203Z,10.50
2019-03-20T09:21:46.161Z,10.70
2019-03-20T09:26:47.125Z,10.90
2019-03-20T09:31:47.371Z,11.10
2019-03-20T09:36:47.295Z,11.30
2019-03-20T09:41:46.951Z,11.50
2019-03-20T09:46:46.637Z,11.70
2019-03-20T09:51:46.296Z,11.80
2019-03-20T09:56:45.971Z,12.00
2019-03-20T10:01:45.767Z,12.10
2019-03-20T10:06:45.407Z,12.30
2019-03-20T10:11:45.412Z,12.40
2019-03-20T10:16:45.063Z,12.50
2019-03-20T10:21:44.728Z,12.60
2019-03-20T10:26:44.622Z,12.60
2019-03-20T10:31:44.331Z,12.70
2019-03-20T10:36:44.035Z,12.70
2019-03-20T10:41:43.756Z,12.80
2019-03-20T10:46:43.501Z,12.90
2019-03-20T10:51:43.174Z,12.80
2019-03-20T10:56:43.095Z,12.90
2019-03-20T11:01:43.072Z,12.90
2019-03-20T11:06:42.895Z,12.90
2019-03-20T11:11:42.587Z,13.00
2019-03-20T11:16:42.688Z,13.10
2019-03-20T11:21:42.409Z,13.20
2019-03-20T11:26:42.367Z,13.30
2019-03-20T11:31:42.115Z,13.40
2019-03-20T11:36:41.787Z,13.40
2019-03-20T11:41:41.429Z,13.50
2019-03-20T11:46:41.185Z,13.60
2019-03-20T11:51:40.823Z,13.70
2019-03-20T11:56:40.646Z,13.70
2019-03-20T12:01:40.311Z,13.80
2019-03-20T12:06:40.213Z,13.80
2019-03-20T12:11:45.869Z,13.80
2019-03-20T12:16:41.860Z,13.80
2019-03-20T12:21:41.784Z,13.80
2019-03-20T12:27:00.655Z,13.80
2019-03-20T12:32:00.596Z,13.80
2019-03-20T12:37:00.273Z,13.80
2019-03-20T12:42:00.283Z,13.80
2019-03-20T12:47:00.045Z,13.80
2019-03-20T12:51:59.686Z,13.80
2019-03-20T12:56:59.431Z,13.80
2019-03-20T13:01:59.164Z,13.80
2019-03-20T13:06:59.151Z,13.70
2019-03-20T13:11:58.794Z,13.70
2019-03-20T13:16:58.455Z,13.70
2019-03-20T13:21:58.183Z,13.60
2019-03-20T13:26:57.826Z,13.60
2019-03-20T13:31:57.551Z,13.70
2019-03-20T13:36:57.242Z,13.60
2019-03-20T13:41:56.917Z,13.60
2019-03-20T13:46:56.920Z,13.60
2019-03-20T13:51:56.603Z,13.60
2019-03-20T13:56:56.276Z,13.60
2019-03-20T14:01:55.923Z,13.60
2019-03-20T14:06:55.599Z,13.60
2019-03-20T14:11:55.251Z,13.60
2019-03-20T14:16:55.010Z,13.70
2019-03-20T14:21:54.931Z,13.70
2019-03-20T14:26:54.588Z,13.70
2019-03-20T14:31:54.227Z,13.70
2019-03-20T14:36:53.879Z,13.70
2019-03-20T14:41:53.544Z,13.80
2019-03-20T14:46:53.238Z,13.80
2019-03-20T14:51:52.915Z,13.80
2019-03-20T14:56:52.566Z,13.80
2019-03-20T15:01:52.251Z,13.80
2019-03-20T15:06:51.917Z,13.80
2019-03-20T15:11:51.677Z,13.80
2019-03-20T15:16:51.343Z,13.80
2019-03-20T15:21:51.039Z,13.80
2019-03-20T15:26:50.711Z,13.80
2019-03-20T15:31:50.519Z,13.90
2019-03-20T15:36:50.167Z,13.80
2019-03-20T15:41:49.807Z,13.90
2019-03-20T15:46:49.515Z,13.90
2019-03-20T15:51:49.203Z,13.80
2019-03-20T15:56:48.934Z,13.80
2019-03-20T16:01:48.615Z,13.70
2019-03-20T16:06:48.599Z,13.80
2019-03-20T16:11:48.615Z,13.80
2019-03-20T16:16:48.321Z,13.80
2019-03-20T16:21:47.999Z,13.70
2019-03-20T16:26:47.723Z,13.70
2019-03-20T16:31:47.415Z,13.70
2019-03-20T16:36:47.074Z,13.70
2019-03-20T16:41:46.699Z,13.70
2019-03-20T16:46:46.370Z,13.70
2019-03-20T16:51:46.047Z,13.70
2019-03-20T16:56:45.722Z,13.70
2019-03-20T17:01:45.397Z,13.70
2019-03-20T17:06:45.099Z,13.60
2019-03-20T17:11:44.767Z,13.60
2019-03-20T17:16:45.092Z,13.60
2019-03-20T17:21:44.999Z,13.60
2019-03-20T17:26:44.935Z,13.60
2019-03-20T17:31:44.581Z,13.60
2019-03-20T17:36:44.231Z,13.60
2019-03-20T17:41:43.875Z,13.60
2019-03-20T17:46:43.986Z,13.60
2019-03-20T17:51:43.782Z,13.60
2019-03-20T17:56:43.443Z,13.60
2019-03-20T18:01:43.168Z,13.50
2019-03-20T18:06:43.413Z,13.50
2019-03-20T18:11:47.491Z,13.50
2019-03-20T18:16:44.467Z,13.50
2019-03-20T18:21:56.135Z,13.50
2019-03-20T18:26:55.801Z,13.50
2019-03-20T18:31:55.530Z,13.40
2019-03-20T18:36:55.321Z,13.40
2019-03-20T18:41:57.938Z,13.50
2019-03-20T18:46:56.664Z,13.50
2019-03-20T18:51:56.365Z,13.50
2019-03-20T18:56:56.099Z,13.50
2019-03-20T19:01:55.906Z,13.50
2019-03-20T19:06:55.797Z,13.50
2019-03-20T19:11:55.519Z,13.50
2019-03-20T19:16:55.487Z,13.50
2019-03-20T19:21:55.108Z,13.40
2019-03-20T19:26:55.840Z,13.40
2019-03-20T19:31:56.041Z,13.40
2019-03-20T19:36:56.536Z,13.40
2019-03-20T19:41:56.280Z,13.40
2019-03-20T19:46:56.450Z,13.40
2019-03-20T19:51:56.117Z,13.40
2019-03-20T19:56:55.807Z,13.40
2019-03-20T20:01:55.691Z,13.40
2019-03-20T20:06:55.339Z,13.40
2019-03-20T20:11:54.999Z,13.50
2019-03-20T20:16:54.662Z,13.40
2019-03-20T20:21:54.307Z,13.40
2019-03-20T20:26:53.955Z,13.40
2019-03-20T20:31:53.945Z,13.40
2019-03-20T20:36:53.592Z,13.40
2019-03-20T20:41:53.261Z,13.40
2019-03-20T20:46:52.938Z,13.40
2019-03-20T20:51:52.611Z,13.40
2019-03-20T20:56:52.282Z,13.40
2019-03-20T21:01:52.311Z,13.40
2019-03-20T21:06:51.972Z,13.40
2019-03-20T21:11:51.647Z,13.40
2019-03-20T21:16:51.867Z,13.40
2019-03-20T21:22:23.944Z,13.40
2019-03-20T21:28:02.888Z,13.40
2019-03-20T21:33:03.727Z,13.40
2019-03-20T21:38:12.053Z,13.40
2019-03-20T21:43:58.283Z,13.40
2019-03-20T21:48:58.481Z,13.40
2019-03-20T21:54:40.643Z,13.40
2019-03-20T22:00:32.392Z,13.50
2019-03-20T22:06:16.589Z,13.50
2019-03-20T22:11:46.399Z,13.40
2019-03-20T22:17:26.715Z,13.40
2019-03-20T22:23:01.151Z,13.40
2019-03-20T22:28:23.604Z,13.40
2019-03-20T22:33:59.439Z,13.40
2019-03-20T22:39:42.808Z,13.40
2019-03-20T22:44:56.916Z,13.40
2019-03-20T22:50:20.483Z,13.40
2019-03-20T22:55:41.615Z,13.40
2019-03-20T23:00:41.979Z,13.40
2019-03-20T23:05:42.638Z,13.40
2019-03-20T23:10:42.881Z,13.40
2019-03-20T23:15:54.725Z,13.40
2019-03-20T23:20:55.259Z,13.40
2019-03-20T23:25:55.719Z,13.40
2019-03-20T23:30:56.271Z,13.40
2019-03-20T23:35:56.471Z,13.50
2019-03-20T23:40:56.759Z,13.40
2019-03-20T23:45:57.080Z,13.40
2019-03-20T23:51:01.018Z,13.40
2019-03-20T23:56:01.223Z,13.40
